Time;durP1;ratioP1;P1;durP2;ratioP2;P2;SDS_P1;SDS_P2;PMS_P1;PMS_P2;Temp;Humidity;BMP_temperature;BMP_pressure;BME280_temperature;BME280_humidity;BME280_pressure;Samples;Min_cycle;Max_cycle;Signal;HPM_P1;HPM_P2
2024/03/01 00:00:59;;;;;;;52.10;30.70;;;;;;;5.39;69.10;100498.45;109525;1250;59112;-83
2024/03/01 00:03:26;;;;;;;57.10;33.00;;;;;;;5.33;69.05;100496.71;109431;1250;59242;-81
2024/03/01 00:05:54;;;;;;;51.20;31.20;;;;;;;5.24;69.60;100497.41;108782;1251;72319;-82
2024/03/01 00:08:21;;;;;;;46.80;29.40;;;;;;;5.18;69.77;100501.75;106496;1251;69039;-81
2024/03/01 00:10:49;;;;;;;53.00;33.40;;;;;;;5.11;70.08;100512.75;106190;1251;70459;-80
2024/03/01 00:13:17;;;;;;;50.00;31.60;;;;;;;5.12;70.32;100515.00;106320;1252;60520;-79
2024/03/01 00:15:44;;;;;;;47.50;28.70;;;;;;;5.12;70.17;100511.46;106269;1251;60429;-81
2024/03/01 00:18:11;;;;;;;51.60;30.50;;;;;;;5.10;70.11;100507.42;106239;1251;73898;-81
2024/03/01 00:20:39;;;;;;;49.80;30.80;;;;;;;5.03;70.18;100501.12;106175;1251;70343;-80
2024/03/01 00:23:06;;;;;;;47.30;31.00;;;;;;;4.96;70.60;100496.55;105957;1251;72441;-79
2024/03/01 00:25:34;;;;;;;53.20;32.30;;;;;;;4.93;70.66;100494.10;106313;1256;60533;-80
2024/03/01 00:28:01;;;;;;;49.60;30.00;;;;;;;4.92;70.57;100493.24;106398;1250;60533;-79
2024/03/01 00:30:29;;;;;;;53.70;29.00;;;;;;;4.98;70.47;100494.43;106769;1251;73843;-82
2024/03/01 00:32:58;;;;;;;48.60;28.70;;;;;;;5.04;70.44;100498.73;107323;1253;70093;-79
2024/03/01 00:35:25;;;;;;;52.70;30.30;;;;;;;5.04;70.49;100500.64;106437;1253;71945;-81
2024/03/01 00:37:53;;;;;;;51.70;29.80;;;;;;;5.03;70.59;100499.48;106319;1256;60494;-79
2024/03/01 00:40:20;;;;;;;51.60;30.40;;;;;;;5.01;70.44;100491.73;106540;1257;60383;-80
2024/03/01 00:42:48;;;;;;;50.80;31.70;;;;;;;4.97;70.76;100493.15;106450;1251;73764;-81
2024/03/01 00:45:15;;;;;;;52.10;31.30;;;;;;;4.95;70.99;100491.48;106348;1251;70279;-81
2024/03/01 00:47:47;;;;;;;45.80;30.60;;;;;;;4.95;70.79;100488.48;106465;1251;72318;-83
2024/03/01 00:50:21;;;;;;;46.90;31.80;;;;;;;4.91;70.90;100485.83;106446;1254;60520;-82
2024/03/01 00:52:48;;;;;;;47.60;30.70;;;;;;;4.86;71.09;100488.25;109280;1250;58736;-80
2024/03/01 00:55:16;;;;;;;54.40;32.40;;;;;;;4.86;71.14;100483.89;109519;1251;72610;-83
2024/03/01 00:57:44;;;;;;;52.50;29.50;;;;;;;4.88;71.08;100482.48;107586;1251;68280;-83
2024/03/01 01:00:12;;;;;;;43.80;28.90;;;;;;;4.95;70.87;100478.11;106989;1256;71798;-81
2024/03/01 01:02:40;;;;;;;42.50;27.90;;;;;;;5.07;70.69;100476.70;107360;1251;60531;-83
2024/03/01 01:05:10;;;;;;;47.70;29.30;;;;;;;5.09;70.73;100478.83;106799;1253;60504;-83
2024/03/01 01:07:37;;;;;;;49.50;31.70;;;;;;;5.07;70.72;100479.55;106961;1256;73789;-81
2024/03/01 01:10:06;;;;;;;48.10;31.10;;;;;;;5.08;70.82;100477.17;107471;1250;70328;-81
2024/03/01 01:12:34;;;;;;;42.50;31.10;;;;;;;5.09;70.83;100470.27;107131;1253;72643;-81
2024/03/01 01:15:02;;;;;;;50.30;30.70;;;;;;;5.10;70.69;100467.92;108895;1251;59185;-79
2024/03/01 01:17:32;;;;;;;57.70;36.10;;;;;;;5.10;70.61;100470.88;107200;1251;60383;-79
2024/03/01 01:19:59;;;;;;;50.90;31.10;;;;;;;5.10;70.60;100471.98;107278;1252;73981;-82
2024/03/01 01:22:27;;;;;;;51.30;33.00;;;;;;;5.07;70.43;100472.71;106601;1254;69385;-81
2024/03/01 01:24:55;;;;;;;50.00;31.30;;;;;;;5.02;70.52;100467.42;106786;1251;72290;-78
2024/03/01 01:27:22;;;;;;;49.90;29.00;;;;;;;5.01;70.81;100467.19;106730;1251;60873;-81
2024/03/01 01:29:49;;;;;;;45.60;30.00;;;;;;;5.07;70.60;100463.02;102898;1251;5333236;-77
2024/03/01 01:35:10;;;;;;;45.60;29.80;;;;;;;5.20;70.66;100451.36;103766;1291;602522;-77
2024/03/01 01:37:37;;;;;;;50.00;30.80;;;;;;;5.17;70.55;100444.91;107469;1260;59072;-79
2024/03/01 01:40:06;;;;;;;52.60;32.80;;;;;;;5.17;70.58;100445.26;107110;1258;60035;-77
2024/03/01 01:42:33;;;;;;;47.20;32.40;;;;;;;5.19;70.51;100442.13;106162;1265;72478;-79
2024/03/01 01:45:01;;;;;;;49.80;32.90;;;;;;;5.22;70.50;100445.89;107149;1260;68761;-80
2024/03/01 01:47:29;;;;;;;49.10;32.20;;;;;;;5.23;70.23;100443.19;105512;1260;5204596;-81
2024/03/01 01:49:56;;;;;;;52.80;34.30;;;;;;;5.23;70.09;100445.83;107734;1258;59240;-81
2024/03/01 01:52:24;;;;;;;54.80;35.90;;;;;;;5.22;70.04;100448.00;106278;1257;59324;-79
2024/03/01 01:54:52;;;;;;;53.80;34.90;;;;;;;5.20;69.77;100451.69;106081;1257;59387;-80
2024/03/01 01:57:20;;;;;;;45.30;31.40;;;;;;;5.15;69.75;100453.66;105624;1258;69039;-76
2024/03/01 01:59:47;;;;;;;46.60;30.70;;;;;;;5.11;69.79;100460.05;105858;1260;72660;-78
2024/03/01 02:02:16;;;;;;;43.70;27.00;;;;;;;5.17;69.81;100458.65;105607;1258;59643;-78
2024/03/01 02:04:43;;;;;;;45.50;28.00;;;;;;;5.22;69.68;100454.33;105385;1263;59650;-80
2024/03/01 02:07:11;;;;;;;46.20;29.70;;;;;;;5.19;69.55;100453.19;105486;1264;73141;-79
2024/03/01 02:09:39;;;;;;;48.10;28.40;;;;;;;5.15;69.95;100454.38;105673;1263;69034;-81
2024/03/01 02:12:07;;;;;;;50.70;30.10;;;;;;;5.14;69.86;100453.70;105299;1264;72705;-81
2024/03/01 02:14:34;;;;;;;39.60;27.20;;;;;;;5.13;69.57;100447.62;106002;1260;59867;-79
2024/03/01 02:17:02;;;;;;;42.00;26.50;;;;;;;5.12;69.61;100445.45;106488;1258;59567;-77
2024/03/01 02:19:29;;;;;;;46.30;32.10;;;;;;;5.11;69.60;100444.87;106188;1257;71466;-78
2024/03/01 02:22:18;;;;;;;49.70;32.40;;;;;;;5.10;69.46;100449.15;105642;1264;69029;-76
2024/03/01 02:24:46;;;;;;;50.50;33.20;;;;;;;5.05;69.26;100443.67;105898;1256;71858;-77
2024/03/01 02:27:13;;;;;;;49.60;30.40;;;;;;;5.01;69.25;100442.23;105988;1254;61530;-76
2024/03/01 02:29:40;;;;;;;52.60;33.50;;;;;;;4.96;69.54;100441.70;105570;1254;59990;-77
2024/03/01 02:32:08;;;;;;;47.00;28.30;;;;;;;4.93;69.38;100445.30;105717;1257;73090;-78
2024/03/01 02:34:35;;;;;;;41.10;25.50;;;;;;;4.91;69.23;100447.38;106004;1257;70159;-80
2024/03/01 02:37:03;;;;;;;39.70;23.90;;;;;;;4.94;69.17;100446.42;105926;1257;72887;-78
2024/03/01 02:39:30;;;;;;;38.00;24.10;;;;;;;5.00;68.83;100442.89;107825;1256;59074;-80
2024/03/01 02:41:57;;;;;;;38.80;24.80;;;;;;;4.97;68.82;100439.03;108778;1257;58748;-78
2024/03/01 02:44:25;;;;;;;39.80;24.40;;;;;;;4.94;68.86;100437.67;107911;1256;71605;-79
2024/03/01 02:46:52;;;;;;;38.50;25.00;;;;;;;4.92;68.56;100437.48;106969;1256;69514;-79
2024/03/01 02:49:20;;;;;;;41.20;27.00;;;;;;;4.89;68.55;100434.88;108491;1256;71601;-77
2024/03/01 02:51:47;;;;;;;40.50;25.30;;;;;;;4.86;68.67;100434.95;106344;1257;59792;-82
2024/03/01 02:54:15;;;;;;;37.40;25.30;;;;;;;4.83;68.65;100437.27;105876;1256;59943;-78
2024/03/01 02:56:43;;;;;;;42.50;28.80;;;;;;;4.81;68.79;100435.70;105662;1257;73037;-76
2024/03/01 02:59:10;;;;;;;53.00;32.50;;;;;;;4.80;68.54;100434.36;105693;1257;70156;-80
2024/03/01 03:01:37;;;;;;;52.60;33.70;;;;;;;4.79;68.76;100434.80;106203;1260;72795;-79
2024/03/01 03:04:05;;;;;;;49.70;31.00;;;;;;;4.75;68.99;100435.71;106355;1259;59766;-80
2024/03/01 03:06:33;;;;;;;54.80;34.20;;;;;;;4.72;68.67;100439.64;107167;1257;59694;-81
2024/03/01 03:09:00;;;;;;;47.10;31.20;;;;;;;4.69;68.86;100444.64;107632;1256;73740;-78
2024/03/01 03:11:28;;;;;;;38.60;24.50;;;;;;;4.66;69.04;100443.23;105672;1257;70323;-79
2024/03/01 03:13:55;;;;;;;40.90;23.50;;;;;;;4.73;68.53;100440.80;105529;1259;72716;-79
2024/03/01 03:16:22;;;;;;;39.10;24.40;;;;;;;4.78;68.49;100440.59;105675;1260;59759;-79
2024/03/01 03:18:50;;;;;;;42.00;26.70;;;;;;;4.78;68.40;100437.27;105717;1260;59506;-79
2024/03/01 03:21:17;;;;;;;45.50;27.80;;;;;;;4.78;68.70;100440.23;105324;1262;73261;-77
2024/03/01 03:23:45;;;;;;;54.40;35.40;;;;;;;4.80;68.61;100437.34;105261;1257;70153;-79
2024/03/01 03:26:12;;;;;;;56.70;36.00;;;;;;;4.78;68.56;100441.11;105573;1257;71700;-79
2024/03/01 03:28:40;;;;;;;53.80;36.30;;;;;;;4.74;68.37;100439.50;105740;1257;59736;-79
2024/03/01 03:31:07;;;;;;;59.50;38.70;;;;;;;4.68;68.81;100437.65;105627;1257;59717;-79
2024/03/01 03:33:35;;;;;;;66.00;39.50;;;;;;;4.57;68.88;100437.60;107598;1256;71944;-79
2024/03/01 03:38:15;;;;;;;67.20;38.90;;;;;;;4.40;69.44;100435.14;104270;1294;600514;-80
2024/03/01 03:40:43;;;;;;;57.00;37.40;;;;;;;4.28;69.39;100434.08;105277;1271;59251;-82
2024/03/01 03:43:10;;;;;;;55.70;35.80;;;;;;;4.29;69.53;100435.77;105857;1261;60017;-80
2024/03/01 03:45:38;;;;;;;53.00;37.00;;;;;;;4.34;69.49;100436.08;105614;1261;72222;-79
2024/03/01 03:48:05;;;;;;;56.70;36.80;;;;;;;4.31;69.51;100437.70;105868;1263;70080;-78
2024/03/01 03:50:33;;;;;;;59.50;38.40;;;;;;;4.21;69.78;100436.69;106155;1263;71441;-79
2024/03/01 03:53:00;;;;;;;54.20;35.80;;;;;;;4.15;70.30;100439.92;106394;1253;189564;-80
2024/03/01 03:55:28;;;;;;;62.50;37.80;;;;;;;4.10;70.17;100434.80;105776;1258;59949;-82
2024/03/01 03:57:55;;;;;;;56.90;36.40;;;;;;;4.01;70.06;100433.04;105785;1263;72520;-81
2024/03/01 04:00:23;;;;;;;56.70;36.50;;;;;;;3.87;70.14;100439.77;106027;1259;69046;-83
2024/03/01 04:02:51;;;;;;;53.10;36.50;;;;;;;3.73;70.42;100442.34;105856;1259;71685;-79
2024/03/01 04:05:18;;;;;;;64.20;38.60;;;;;;;3.59;70.91;100441.77;105587;1262;59657;-79
2024/03/01 04:07:45;;;;;;;52.50;33.60;;;;;;;3.50;71.32;100441.14;105796;1259;59539;-79
2024/03/01 04:10:13;;;;;;;51.30;33.30;;;;;;;3.45;71.14;100440.74;106149;1259;71214;-81
2024/03/01 04:12:41;;;;;;;60.40;33.90;;;;;;;3.45;71.26;100438.31;106179;1258;69160;-81
2024/03/01 04:15:09;;;;;;;58.50;34.60;;;;;;;3.39;71.60;100438.21;106117;1257;71112;-80
2024/03/01 04:17:36;;;;;;;55.50;36.30;;;;;;;3.28;72.04;100437.20;106516;1257;59601;-81
2024/03/01 04:20:05;;;;;;;58.10;36.40;;;;;;;3.19;72.38;100435.35;106490;1259;59531;-83
2024/03/01 04:22:33;;;;;;;60.00;36.00;;;;;;;3.19;72.82;100441.46;108153;1253;73154;-79
2024/03/01 04:25:02;;;;;;;60.90;37.30;;;;;;;3.20;72.95;100441.23;107509;1259;69974;-81
2024/03/01 04:27:30;;;;;;;55.00;37.10;;;;;;;3.24;73.40;100443.61;107599;1257;72863;-82
2024/03/01 04:29:59;;;;;;;60.60;35.70;;;;;;;3.27;73.11;100439.22;109023;1259;59538;-80
2024/03/01 04:32:27;;;;;;;60.10;35.50;;;;;;;3.26;73.12;100444.53;107634;1257;59199;-79
2024/03/01 04:34:55;;;;;;;49.40;32.20;;;;;;;3.32;72.99;100441.31;106416;1253;72012;-80
2024/03/01 04:37:23;;;;;;;57.00;34.00;;;;;;;3.44;73.05;100442.98;106405;1262;68987;-82
2024/03/01 04:39:50;;;;;;;55.30;35.10;;;;;;;3.48;72.97;100444.61;106223;1257;70337;-79
2024/03/01 04:42:17;;;;;;;56.90;36.20;;;;;;;3.49;72.95;100446.84;105772;1257;59651;-80
2024/03/01 04:44:45;;;;;;;56.50;36.10;;;;;;;3.51;72.88;100450.86;105805;1260;59824;-80
2024/03/01 04:47:13;;;;;;;50.80;35.30;;;;;;;3.53;72.88;100453.69;105857;1253;73006;-80
2024/03/01 04:49:43;;;;;;;62.40;38.50;;;;;;;3.55;72.92;100450.60;105948;1259;69305;-80
2024/03/01 04:52:11;;;;;;;53.60;36.60;;;;;;;3.54;72.68;100449.77;106234;1260;73793;-79
2024/03/01 04:54:38;;;;;;;53.70;35.40;;;;;;;3.50;72.69;100449.56;106880;1254;59840;-77
2024/03/01 04:57:07;;;;;;;55.40;35.10;;;;;;;3.46;72.83;100450.17;107610;1259;61063;-79
2024/03/01 04:59:38;;;;;;;52.80;33.90;;;;;;;3.44;72.95;100450.30;106295;1254;71801;-80
2024/03/01 05:02:07;;;;;;;51.10;31.90;;;;;;;3.53;73.07;100448.65;105902;1260;70620;-80
2024/03/01 05:04:35;;;;;;;47.90;32.40;;;;;;;3.65;72.95;100450.28;105816;1257;72758;-81
2024/03/01 05:07:04;;;;;;;56.30;35.00;;;;;;;3.70;73.22;100449.70;106104;1260;60823;-80
2024/03/01 05:09:32;;;;;;;59.40;36.80;;;;;;;3.74;72.93;100448.53;106160;1259;59613;-81
2024/03/01 05:11:59;;;;;;;58.50;37.20;;;;;;;3.78;72.58;100451.84;105831;1259;72802;-81
2024/03/01 05:14:27;;;;;;;57.90;37.80;;;;;;;3.78;72.53;100449.36;106704;1258;68731;-81
2024/03/01 05:16:54;;;;;;;60.50;38.00;;;;;;;3.78;72.44;100449.05;107562;1254;71414;-78
2024/03/01 05:19:22;;;;;;;55.20;38.60;;;;;;;3.75;71.96;100448.16;106140;1257;61333;-81
2024/03/01 05:21:49;;;;;;;52.60;36.60;;;;;;;3.72;72.05;100446.59;108011;1251;60006;-80
2024/03/01 05:24:17;;;;;;;60.80;39.00;;;;;;;3.69;72.18;100452.40;109166;1256;72085;-78
2024/03/01 05:26:44;;;;;;;45.30;33.40;;;;;;;3.63;71.73;100454.59;107600;1254;68747;-82
2024/03/01 05:29:14;;;;;;;52.20;36.50;;;;;;;3.61;71.58;100458.57;106707;1259;72697;-80
2024/03/01 05:31:47;;;;;;;61.10;36.30;;;;;;;3.59;71.62;100461.20;106465;1257;59710;-82
2024/03/01 05:34:15;;;;;;;51.20;35.50;;;;;;;3.51;71.99;100464.84;106010;1260;59656;-80
2024/03/01 05:36:43;;;;;;;58.40;37.00;;;;;;;3.45;72.19;100466.19;105860;1261;73060;-80
2024/03/01 05:39:17;;;;;;;62.90;38.00;;;;;;;3.41;72.50;100468.00;106150;1255;69755;-80
2024/03/01 05:41:45;;;;;;;59.90;37.40;;;;;;;3.39;72.76;100472.86;106129;1254;71466;-81
2024/03/01 05:44:13;;;;;;;66.80;39.50;;;;;;;3.35;72.58;100476.64;107382;1254;59646;-80
2024/03/01 05:46:41;;;;;;;66.90;40.90;;;;;;;3.31;72.62;100478.27;108175;1255;59708;-79
2024/03/01 05:49:10;;;;;;;59.90;39.20;;;;;;;3.28;73.05;100479.92;107887;1257;71743;-78
2024/03/01 05:51:38;;;;;;;63.10;39.00;;;;;;;3.26;73.04;100482.84;107851;1257;68860;-78
2024/03/01 05:54:05;;;;;;;60.30;36.40;;;;;;;3.32;73.09;100478.42;107192;1256;73601;-78
2024/03/01 05:56:33;;;;;;;57.70;36.70;;;;;;;3.42;73.09;100478.10;107713;1254;59576;-79
2024/03/01 05:59:00;;;;;;;59.80;39.70;;;;;;;3.44;73.02;100488.29;108137;1255;58708;-78
2024/03/01 06:01:28;;;;;;;61.70;39.50;;;;;;;3.44;73.40;100495.83;106673;1256;72988;-79
2024/03/01 06:03:55;;;;;;;67.40;43.50;;;;;;;3.45;73.29;100499.81;106365;1254;69983;-78
2024/03/01 06:06:23;;;;;;;60.50;41.70;;;;;;;3.50;73.61;100499.48;106016;1257;72632;-78
2024/03/01 06:08:50;;;;;;;64.50;42.90;;;;;;;3.53;73.52;100501.52;105953;1257;59613;-80
2024/03/01 06:11:17;;;;;;;62.40;41.60;;;;;;;3.57;73.57;100506.19;106739;1253;59512;-79
2024/03/01 06:13:45;;;;;;;70.70;44.60;;;;;;;3.61;73.54;100502.04;108145;1252;71764;-79
2024/03/01 06:16:12;;;;;;;68.80;41.80;;;;;;;3.66;73.26;100500.44;108626;1253;68825;-81
2024/03/01 06:18:40;;;;;;;64.10;40.80;;;;;;;3.82;73.49;100500.23;107543;1253;71340;-82
2024/03/01 06:21:07;;;;;;;65.60;40.40;;;;;;;4.03;73.26;100501.79;107299;1256;59570;-81
2024/03/01 06:23:35;;;;;;;75.40;43.00;;;;;;;4.17;73.00;100500.98;106723;1257;60235;-80
2024/03/01 06:26:03;;;;;;;65.20;42.30;;;;;;;4.26;73.24;100503.14;106269;1257;72815;-82
2024/03/01 06:28:30;;;;;;;68.30;43.90;;;;;;;4.33;72.72;100505.25;105839;1257;68694;-80
2024/03/01 06:30:58;;;;;;;72.90;45.30;;;;;;;4.36;72.52;100507.16;106239;1251;72709;-78
2024/03/01 06:33:26;;;;;;;71.00;46.50;;;;;;;4.38;71.96;100507.51;106124;1255;59675;-77
2024/03/01 06:35:54;;;;;;;78.20;46.20;;;;;;;4.45;72.15;100509.67;106008;1251;60818;-80
2024/03/01 06:38:21;;;;;;;74.20;48.30;;;;;;;4.50;71.75;100513.02;106200;1255;73040;-80
2024/03/01 06:40:49;;;;;;;72.40;49.10;;;;;;;4.52;71.62;100509.84;105784;1255;69195;-80
2024/03/01 06:43:16;;;;;;;72.70;49.00;;;;;;;4.58;71.67;100513.14;106104;1256;72690;-79
2024/03/01 06:45:44;;;;;;;75.40;45.40;;;;;;;4.62;71.43;100514.77;105908;1251;59659;-77
2024/03/01 06:48:11;;;;;;;66.30;43.40;;;;;;;4.75;71.45;100512.06;106016;1254;59599;-77
2024/03/01 06:50:44;;;;;;;72.80;45.00;;;;;;;4.91;70.77;100508.48;106072;1251;72910;-75
2024/03/01 06:53:11;;;;;;;71.60;45.20;;;;;;;4.98;70.53;100513.89;105736;1256;72233;-78
2024/03/01 06:55:39;;;;;;;68.50;44.20;;;;;;;5.02;70.54;100514.70;106152;1251;71599;-79
2024/03/01 06:58:06;;;;;;;70.50;46.70;;;;;;;5.03;70.33;100516.88;106237;1257;59692;-80
2024/03/01 07:00:34;;;;;;;72.90;48.90;;;;;;;5.04;70.31;100526.14;106296;1254;61049;-79
2024/03/01 07:03:02;;;;;;;74.40;44.90;;;;;;;5.08;70.28;100528.59;106384;1251;72070;-81
2024/03/01 07:05:30;;;;;;;68.70;44.60;;;;;;;5.10;70.02;100529.59;106503;1251;71010;-81
2024/03/01 07:07:58;;;;;;;76.40;48.60;;;;;;;5.07;69.96;100528.89;106819;1257;73188;-80
2024/03/01 07:10:25;;;;;;;74.00;47.70;;;;;;;5.03;70.04;100528.47;108103;1250;61416;-78
2024/03/01 07:12:53;;;;;;;73.30;47.70;;;;;;;5.05;70.52;100525.13;109217;1251;59598;-77
2024/03/01 07:15:20;;;;;;;79.60;50.70;;;;;;;5.21;70.50;100527.67;107244;1256;74107;-76
2024/03/01 07:17:48;;;;;;;60.70;39.20;;;;;;;5.39;70.50;100529.31;106277;1251;70357;-78
2024/03/01 07:20:15;;;;;;;54.00;34.80;;;;;;;5.57;69.33;100530.63;106208;1255;73366;-77
2024/03/01 07:22:43;;;;;;;53.70;35.00;;;;;;;5.73;68.40;100532.55;106068;1251;59586;-77
2024/03/01 07:25:11;;;;;;;46.70;33.70;;;;;;;5.90;67.65;100529.85;106365;1256;60435;-77
2024/03/01 07:27:38;;;;;;;53.10;33.20;;;;;;;6.06;66.92;100532.50;106422;1257;73174;-78
2024/03/01 07:30:07;;;;;;;48.80;29.30;;;;;;;6.18;65.98;100528.56;106569;1257;70266;-79
2024/03/01 07:32:35;;;;;;;49.70;31.80;;;;;;;6.28;65.45;100525.63;107764;1254;73487;-78
2024/03/01 07:35:03;;;;;;;45.10;30.70;;;;;;;6.43;65.30;100524.16;106342;1251;59698;-78
2024/03/01 07:37:31;;;;;;;44.10;29.10;;;;;;;6.58;64.64;100526.48;106307;1250;60233;-80
2024/03/01 07:39:59;;;;;;;44.30;28.00;;;;;;;6.70;63.77;100527.24;106144;1255;74780;-79
2024/03/01 07:42:28;;;;;;;37.90;27.00;;;;;;;6.82;63.31;100531.91;106248;1251;70325;-78
2024/03/01 07:44:55;;;;;;;35.50;25.70;;;;;;;6.91;61.94;100535.29;106077;1257;73574;-79
2024/03/01 07:47:29;;;;;;;32.10;24.20;;;;;;;6.94;60.48;100538.53;106339;1251;60425;-79
2024/03/01 07:49:57;;;;;;;32.90;23.80;;;;;;;6.90;60.29;100537.14;106488;1255;62202;-80
2024/03/01 07:52:28;;;;;;;35.20;24.70;;;;;;;6.87;60.05;100543.84;106086;1256;72587;-78
2024/03/01 07:54:56;;;;;;;39.10;24.20;;;;;;;6.87;59.87;100541.02;106411;1257;68974;-79
2024/03/01 07:57:24;;;;;;;32.20;24.20;;;;;;;6.91;59.39;100537.03;106332;1254;73555;-80
2024/03/01 07:59:51;;;;;;;34.30;23.20;;;;;;;6.94;59.21;100531.11;106240;1256;60505;-79
2024/03/01 08:02:19;;;;;;;36.20;23.80;;;;;;;7.01;59.00;100534.64;106193;1257;60411;-79
2024/03/01 08:04:46;;;;;;;35.50;22.40;;;;;;;7.09;58.57;100527.60;107728;1251;74828;-77
2024/03/01 08:07:14;;;;;;;38.30;23.50;;;;;;;7.17;57.78;100528.85;109085;1251;71056;-78
2024/03/01 08:09:42;;;;;;;38.30;22.50;;;;;;;7.28;58.13;100528.34;107936;1255;71850;-80
2024/03/01 08:12:13;;;;;;;32.40;21.90;;;;;;;7.41;57.89;100526.00;106862;1251;60419;-81
2024/03/01 08:14:42;;;;;;;39.50;24.00;;;;;;;7.52;57.46;100532.17;106580;1251;61271;-81
2024/03/01 08:17:09;;;;;;;34.70;24.10;;;;;;;7.61;57.06;100536.15;107407;1256;75214;-78
2024/03/01 08:19:43;;;;;;;37.20;24.60;;;;;;;7.65;56.71;100530.64;107922;1251;70290;-78
2024/03/01 08:22:15;;;;;;;36.10;25.60;;;;;;;7.73;56.71;100534.12;106762;1251;72750;-81
2024/03/01 08:24:46;;;;;;;38.10;25.80;;;;;;;7.83;56.55;100528.30;106515;1256;60335;-81
2024/03/01 08:27:15;;;;;;;41.40;25.90;;;;;;;7.96;56.22;100524.89;106384;1254;62235;-80
2024/03/01 08:29:43;;;;;;;36.40;26.40;;;;;;;8.06;56.08;100520.50;106439;1251;76061;-78
2024/03/01 08:32:24;;;;;;;37.70;24.50;;;;;;;8.18;55.91;100516.51;106301;1254;71363;-77
2024/03/01 08:34:55;;;;;;;38.00;26.30;;;;;;;8.34;55.49;100516.48;106218;1251;74946;-78
2024/03/01 08:37:24;;;;;;;39.20;25.70;;;;;;;8.52;55.57;100510.89;106284;1258;60390;-78
2024/03/01 08:39:55;;;;;;;40.70;27.50;;;;;;;8.73;55.26;100509.76;106108;1256;59714;-79
2024/03/01 08:42:24;;;;;;;34.00;24.30;;;;;;;8.92;54.69;100514.36;105843;1251;76091;-81
2024/03/01 08:44:59;;;;;;;38.40;25.40;;;;;;;9.12;54.02;100511.29;106310;1251;72118;-80
2024/03/01 08:47:28;;;;;;;35.40;23.60;;;;;;;9.35;53.80;100511.20;106130;1251;74595;-78
2024/03/01 08:50:15;;;;;;;36.20;24.00;;;;;;;9.62;52.61;100512.58;106135;1256;60534;-77
2024/03/01 08:52:43;;;;;;;36.20;23.50;;;;;;;9.84;51.77;100509.95;106314;1251;60329;-78
2024/03/01 08:55:16;;;;;;;34.00;22.70;;;;;;;10.03;52.13;100510.53;106063;1257;75070;-77
2024/03/01 08:57:45;;;;;;;33.40;23.50;;;;;;;10.34;51.70;100512.67;106768;1251;71338;-78
2024/03/01 09:00:38;;;;;;;39.50;22.40;;;;;;;10.65;50.60;100508.11;109288;1251;73656;-79
2024/03/01 09:03:09;;;;;;;35.30;21.70;;;;;;;10.95;49.87;100503.59;108639;1254;60447;-79
2024/03/01 09:05:40;;;;;;;38.10;21.30;;;;;;;11.20;48.38;100508.17;108599;1252;61015;-81
2024/03/01 09:08:08;;;;;;;30.30;20.70;;;;;;;11.40;47.55;100503.14;107399;1257;75816;-81
2024/03/01 09:10:36;;;;;;;34.20;23.20;;;;;;;11.56;47.30;100498.89;106531;1251;70435;-79
2024/03/01 09:13:04;;;;;;;37.40;21.70;;;;;;;11.75;46.77;100499.58;106385;1251;74099;-80
2024/03/01 09:15:39;;;;;;;35.40;21.90;;;;;;;11.98;46.16;100495.75;106424;1253;60433;-80
2024/03/01 09:18:08;;;;;;;34.80;23.00;;;;;;;12.21;46.07;100499.41;106391;1256;62195;-79
2024/03/01 09:20:37;;;;;;;29.70;19.80;;;;;;;12.54;45.29;100501.67;106786;1257;74279;-79
2024/03/01 09:23:12;;;;;;;32.90;19.60;;;;;;;12.79;44.28;100502.73;106648;1256;68844;-79
2024/03/01 09:25:49;;;;;;;35.00;19.50;;;;;;;12.96;43.54;100498.88;107157;1253;74754;-82
2024/03/01 09:28:20;;;;;;;24.20;18.40;;;;;;;13.12;42.92;100496.30;106714;1257;61359;-83
2024/03/01 09:30:52;;;;;;;27.30;18.90;;;;;;;13.30;42.63;100495.09;106523;1251;61025;-82
2024/03/01 09:33:20;;;;;;;26.80;16.70;;;;;;;13.52;42.44;100499.08;106344;1251;74974;-80
2024/03/01 09:35:51;;;;;;;24.60;17.00;;;;;;;13.71;40.77;100489.16;106195;1251;70409;-81
2024/03/01 09:38:25;;;;;;;23.30;16.70;;;;;;;13.82;41.11;100488.01;106293;1251;72831;-81
2024/03/01 09:41:01;;;;;;;26.50;18.30;;;;;;;13.98;40.05;100492.27;106261;1251;61200;-82
2024/03/01 09:43:50;;;;;;;24.80;15.10;;;;;;;14.10;39.65;100483.08;106449;1256;62155;-81
2024/03/01 09:46:49;;;;;;;26.00;15.80;;;;;;;14.17;38.98;100484.25;106454;1251;73467;-81
2024/03/01 09:49:35;;;;;;;21.30;15.10;;;;;;;14.17;38.65;100487.98;106450;1252;70521;-81
2024/03/01 09:52:06;;;;;;;23.90;15.30;;;;;;;14.33;39.11;100486.00;106784;1251;73624;-81
2024/03/01 09:54:48;;;;;;;21.30;14.70;;;;;;;14.62;38.60;100486.29;108982;1252;62125;-83
2024/03/01 09:58:02;;;;;;;22.50;15.90;;;;;;;15.07;38.19;100478.80;108839;1251;60527;-81
2024/03/01 10:00:32;;;;;;;23.60;15.60;;;;;;;15.60;37.28;100481.05;107246;1257;74835;-82
2024/03/01 10:03:14;;;;;;;21.50;13.70;;;;;;;15.83;36.82;100476.20;107194;1251;71696;-81
2024/03/01 10:05:53;;;;;;;22.10;14.30;;;;;;;15.99;35.66;100476.28;106630;1251;70620;-83
2024/03/01 10:08:37;;;;;;;18.00;12.80;;;;;;;15.90;35.11;100472.95;107096;1251;62315;-82
2024/03/01 10:11:32;;;;;;;21.10;12.70;;;;;;;15.77;35.74;100468.52;107176;1256;60422;-83
2024/03/01 10:14:32;;;;;;;18.60;12.10;;;;;;;16.11;35.80;100471.87;106873;1251;76203;-83
2024/03/01 10:17:08;;;;;;;18.90;13.20;;;;;;;16.47;35.25;100470.41;106683;1251;69921;-82
2024/03/01 10:20:13;;;;;;;19.00;13.60;;;;;;;16.63;34.53;100466.16;106813;1257;73606;-83
2024/03/01 10:22:47;;;;;;;18.20;13.20;;;;;;;16.53;34.35;100460.54;106891;1251;60904;-83
2024/03/01 10:25:23;;;;;;;21.10;13.50;;;;;;;16.35;34.73;100461.02;106999;1253;60517;-83
2024/03/01 10:28:00;;;;;;;18.50;13.80;;;;;;;16.21;34.90;100457.02;107521;1251;71730;-80
2024/03/01 10:30:31;;;;;;;20.30;14.30;;;;;;;16.09;34.99;100451.98;107562;1250;71359;-83
2024/03/01 10:33:13;;;;;;;19.70;13.20;;;;;;;16.16;35.29;100452.46;107295;1251;71276;-82
2024/03/01 10:36:19;;;;;;;18.60;14.00;;;;;;;16.38;35.53;100452.64;107166;1251;61167;-84
2024/03/01 10:38:59;;;;;;;16.40;13.20;;;;;;;16.84;35.32;100445.55;106945;1251;60424;-79
2024/03/01 10:41:32;;;;;;;20.30;14.80;;;;;;;17.42;34.83;100446.29;107298;1257;72555;-77
2024/03/01 10:44:17;;;;;;;22.00;14.70;;;;;;;18.06;33.72;100454.56;107032;1251;70461;-80
2024/03/01 10:46:55;;;;;;;20.30;14.30;;;;;;;18.57;33.35;100448.33;106691;1251;70801;-77
2024/03/01 10:49:32;;;;;;;19.40;14.10;;;;;;;18.91;32.68;100447.66;108498;1253;61334;-79
2024/03/01 10:52:09;;;;;;;19.50;14.30;;;;;;;18.83;32.12;100443.41;108740;1251;58962;-81
2024/03/01 10:54:36;;;;;;;23.30;15.60;;;;;;;18.58;32.32;100440.91;108860;1250;72574;-84
2024/03/01 10:57:07;;;;;;;21.70;15.10;;;;;;;18.47;32.63;100428.55;109552;1250;71068;-82
2024/03/01 10:59:47;;;;;;;20.30;14.20;;;;;;;18.35;32.52;100435.59;108950;1251;73658;-83
2024/03/01 11:02:24;;;;;;;23.10;14.20;;;;;;;18.12;32.73;100431.16;108911;1251;61035;-82
2024/03/01 11:05:07;;;;;;;19.80;14.00;;;;;;;18.02;32.57;100439.94;108894;1251;61319;-82
2024/03/01 11:07:59;;;;;;;17.20;12.80;;;;;;;17.75;32.63;100435.02;109144;1251;72763;-85
2024/03/01 11:10:41;;;;;;;21.40;13.00;;;;;;;17.43;32.19;100437.02;108974;1251;72350;-83
2024/03/01 11:13:13;;;;;;;19.20;13.40;;;;;;;16.98;32.50;100416.20;108486;1253;71463;-83
2024/03/01 11:15:40;;;;;;;20.20;12.70;;;;;;;16.76;33.08;100419.37;108837;1253;59238;-82
2024/03/01 11:18:11;;;;;;;15.50;11.80;;;;;;;16.78;32.81;100428.97;108025;1251;62166;-80
2024/03/01 11:20:46;;;;;;;19.70;12.70;;;;;;;16.68;32.79;100426.02;106035;1254;76119;-76
2024/03/01 11:23:22;;;;;;;16.20;12.20;;;;;;;16.52;32.92;100415.70;106213;1251;70241;-78
2024/03/01 11:25:57;;;;;;;19.40;11.70;;;;;;;16.38;32.92;100411.47;106139;1257;73324;-79